createdAt,value
2023-01-19T00:01:39.369Z,14.35
2023-01-19T00:04:08.944Z,14.30
2023-01-19T00:06:38.797Z,13.10
2023-01-19T00:09:08.599Z,13.57
2023-01-19T00:11:38.899Z,13.67
2023-01-19T00:14:08.469Z,14.70
2023-01-19T00:16:39.111Z,13.47
2023-01-19T00:19:09.882Z,12.33
2023-01-19T00:21:39.689Z,14.47
2023-01-19T00:24:09.242Z,13.87
2023-01-19T00:26:40.404Z,11.50
2023-01-19T00:29:12.409Z,11.35
2023-01-19T00:31:42.782Z,12.03
2023-01-19T00:34:12.278Z,12.43
2023-01-19T00:36:42.066Z,8.87
2023-01-19T00:39:11.543Z,11.20
2023-01-19T00:41:59.228Z,9.57
2023-01-19T00:44:29.028Z,9.70
2023-01-19T00:46:59.124Z,10.30
2023-01-19T00:49:28.955Z,10.93
2023-01-19T00:51:59.086Z,9.95
2023-01-19T00:54:28.847Z,11.97
2023-01-19T00:56:58.709Z,11.37
2023-01-19T00:59:28.868Z,10.00
2023-01-19T01:01:58.948Z,7.97
2023-01-19T01:04:28.749Z,9.37
2023-01-19T01:06:58.517Z,7.87
2023-01-19T01:09:28.345Z,5.63
2023-01-19T01:11:58.348Z,5.20
2023-01-19T01:14:29.750Z,5.17
2023-01-19T01:17:00.615Z,4.73
2023-01-19T01:19:30.424Z,4.20
2023-01-19T01:22:00.196Z,3.80
2023-01-19T01:24:29.936Z,3.33
2023-01-19T01:26:59.765Z,3.17
2023-01-19T01:29:29.520Z,3.43
2023-01-19T01:31:59.507Z,3.10
2023-01-19T01:34:29.519Z,3.70
2023-01-19T01:36:59.293Z,2.57
2023-01-19T01:39:29.101Z,3.60
2023-01-19T01:41:58.871Z,3.00
2023-01-19T01:44:52.481Z,2.90
2023-01-19T01:47:41.774Z,2.42
2023-01-19T01:50:19.790Z,3.30
2023-01-19T01:52:58.516Z,2.63
2023-01-19T01:55:32.067Z,2.62
2023-01-19T01:58:04.947Z,3.50
2023-01-19T02:00:36.430Z,3.57
2023-01-19T02:03:06.470Z,3.20
2023-01-19T02:05:36.940Z,3.43
2023-01-19T02:08:36.252Z,3.13
2023-01-19T02:11:24.768Z,2.80
2023-01-19T02:13:54.792Z,2.57
2023-01-19T02:16:24.716Z,1.72
2023-01-19T02:18:54.504Z,2.30
2023-01-19T02:21:27.027Z,2.30
2023-01-19T02:23:59.088Z,2.13
2023-01-19T02:26:37.712Z,2.67
2023-01-19T02:29:10.326Z,2.40
2023-01-19T02:31:41.939Z,2.37
2023-01-19T02:34:15.394Z,1.87
2023-01-19T02:37:06.820Z,2.20
2023-01-19T02:39:39.594Z,2.05
2023-01-19T02:42:12.106Z,2.30
2023-01-19T02:44:44.941Z,2.40
2023-01-19T02:47:14.953Z,2.00
2023-01-19T02:49:44.750Z,2.23
2023-01-19T02:52:17.335Z,2.57
2023-01-19T02:54:59.136Z,2.80
2023-01-19T02:57:44.089Z,3.17
2023-01-19T03:00:19.649Z,2.12
2023-01-19T03:03:19.687Z,2.57
2023-01-19T03:06:04.903Z,2.65
2023-01-19T03:08:43.826Z,3.03
2023-01-19T03:11:15.126Z,3.17
2023-01-19T03:13:56.702Z,2.73
2023-01-19T03:16:35.321Z,2.67
2023-01-19T03:19:20.473Z,3.43
2023-01-19T03:21:53.542Z,3.42
2023-01-19T03:24:25.776Z,2.67
2023-01-19T03:26:58.722Z,3.25
2023-01-19T03:29:31.888Z,3.97
2023-01-19T03:32:04.417Z,3.40
2023-01-19T03:34:36.928Z,3.95
2023-01-19T03:37:08.463Z,2.80
2023-01-19T03:39:38.496Z,3.47
2023-01-19T03:42:10.974Z,4.00
2023-01-19T03:44:43.159Z,3.90
2023-01-19T03:47:15.544Z,4.37
2023-01-19T03:49:48.151Z,4.17
2023-01-19T03:52:17.668Z,3.87
2023-01-19T03:54:48.219Z,3.60
2023-01-19T03:57:17.657Z,4.77
2023-01-19T03:59:48.006Z,4.47
2023-01-19T04:02:17.896Z,5.17
2023-01-19T04:04:47.754Z,4.90
2023-01-19T04:07:17.467Z,4.70
2023-01-19T04:09:47.348Z,5.27
2023-01-19T04:12:16.903Z,4.80
2023-01-19T04:14:47.561Z,6.60
2023-01-19T04:17:17.033Z,5.13
2023-01-19T04:19:46.869Z,5.63
2023-01-19T04:22:16.366Z,5.30
2023-01-19T04:24:46.163Z,5.63
2023-01-19T04:27:16.296Z,4.80
2023-01-19T04:29:45.957Z,5.97
2023-01-19T04:32:15.837Z,4.97
2023-01-19T04:34:45.672Z,4.93
2023-01-19T04:37:15.459Z,5.57
2023-01-19T04:39:45.239Z,6.07
2023-01-19T04:42:15.186Z,5.87
2023-01-19T04:44:44.946Z,5.90
2023-01-19T04:47:15.450Z,5.77
2023-01-19T04:49:45.181Z,5.63
2023-01-19T04:52:14.958Z,4.87
2023-01-19T04:54:44.681Z,5.13
2023-01-19T04:57:14.433Z,5.37
2023-01-19T04:59:44.168Z,5.27
2023-01-19T05:02:13.796Z,4.73
2023-01-19T05:04:43.900Z,4.97
2023-01-19T05:07:13.429Z,4.53
2023-01-19T05:09:43.257Z,4.40
2023-01-19T05:12:12.731Z,4.30
2023-01-19T05:14:43.243Z,4.70
2023-01-19T05:17:13.248Z,3.27
2023-01-19T05:19:43.131Z,3.83
2023-01-19T05:22:12.612Z,3.63
2023-01-19T05:24:42.518Z,3.87
2023-01-19T05:27:12.486Z,3.33
2023-01-19T05:29:42.283Z,3.60
2023-01-19T05:32:12.131Z,4.10
2023-01-19T05:34:41.920Z,3.40
2023-01-19T05:37:11.651Z,3.30
2023-01-19T05:39:41.514Z,3.33
2023-01-19T05:42:11.064Z,3.30
2023-01-19T05:44:40.797Z,2.83
2023-01-19T05:47:10.564Z,2.40
2023-01-19T05:49:40.305Z,2.57
2023-01-19T05:52:09.950Z,2.50
2023-01-19T05:54:40.362Z,2.83
2023-01-19T05:57:10.772Z,2.80
2023-01-19T05:59:40.261Z,2.17
2023-01-19T06:02:10.145Z,1.93
2023-01-19T06:04:39.855Z,2.17
2023-01-19T06:07:09.328Z,2.63
2023-01-19T06:09:39.082Z,2.60
2023-01-19T06:12:08.773Z,2.07
2023-01-19T06:14:38.584Z,2.03
2023-01-19T06:17:08.553Z,2.63
2023-01-19T06:19:38.259Z,2.10
2023-01-19T06:22:08.269Z,3.10
2023-01-19T06:24:38.059Z,3.20
2023-01-19T06:27:07.556Z,2.40
2023-01-19T06:29:37.370Z,3.00
2023-01-19T06:32:07.415Z,2.70
2023-01-19T06:34:38.409Z,2.77
2023-01-19T06:37:08.412Z,2.42
2023-01-19T06:39:39.850Z,3.17
2023-01-19T06:42:10.158Z,2.57
2023-01-19T06:44:41.929Z,2.27
2023-01-19T06:47:15.670Z,2.10
2023-01-19T06:49:43.808Z,3.30
2023-01-19T06:52:15.576Z,1.97
2023-01-19T06:54:46.491Z,1.97
2023-01-19T06:59:45.018Z,2.55
2023-01-19T07:02:27.531Z,2.57
2023-01-19T07:04:47.592Z,3.03
2023-01-19T07:07:18.110Z,3.73
2023-01-19T07:09:48.121Z,2.10
2023-01-19T07:12:17.614Z,3.67
2023-01-19T07:14:48.972Z,3.37
2023-01-19T07:17:19.113Z,3.65
2023-01-19T07:19:48.929Z,3.47
2023-01-19T07:22:18.845Z,2.53
2023-01-19T07:24:48.638Z,2.90
2023-01-19T07:27:18.587Z,3.00
2023-01-19T07:29:48.522Z,4.37
2023-01-19T07:32:18.261Z,3.30
2023-01-19T07:34:48.008Z,3.57
2023-01-19T07:37:17.679Z,3.90
2023-01-19T07:39:47.603Z,3.03
2023-01-19T07:42:17.139Z,4.07
2023-01-19T07:44:46.866Z,3.57
2023-01-19T07:47:16.819Z,3.05
2023-01-19T07:49:46.547Z,5.13
2023-01-19T07:52:16.407Z,3.27
2023-01-19T07:54:46.217Z,3.53
2023-01-19T07:57:15.737Z,3.37
2023-01-19T07:59:45.480Z,3.67
2023-01-19T08:02:16.341Z,3.83
2023-01-19T08:04:50.793Z,4.50
2023-01-19T08:07:20.429Z,4.00
2023-01-19T08:09:50.159Z,4.10
2023-01-19T08:12:19.658Z,3.70
2023-01-19T08:14:49.391Z,3.77
2023-01-19T08:17:19.485Z,3.58
2023-01-19T08:19:49.291Z,3.30
2023-01-19T08:22:18.836Z,4.67
2023-01-19T08:24:50.365Z,4.27
2023-01-19T08:27:20.205Z,4.00
2023-01-19T08:29:49.956Z,4.43
2023-01-19T08:32:19.596Z,3.40
2023-01-19T08:34:49.760Z,4.12
2023-01-19T08:37:19.443Z,4.57
2023-01-19T08:39:49.180Z,3.97
2023-01-19T08:42:18.989Z,3.20
2023-01-19T08:44:57.734Z,4.40
2023-01-19T08:47:20.282Z,3.85
2023-01-19T08:49:50.384Z,4.15
2023-01-19T08:52:20.167Z,3.80
2023-01-19T08:54:49.909Z,4.73
2023-01-19T08:57:19.460Z,4.13
2023-01-19T08:59:49.257Z,3.83
2023-01-19T09:02:18.997Z,4.37
2023-01-19T09:04:48.946Z,3.67
2023-01-19T09:07:20.089Z,3.70
2023-01-19T09:09:49.857Z,3.17
2023-01-19T09:12:19.346Z,4.07
2023-01-19T09:14:49.110Z,3.53
2023-01-19T09:17:18.902Z,3.00
2023-01-19T09:19:48.688Z,4.10
2023-01-19T09:22:18.351Z,4.10
2023-01-19T09:24:48.135Z,3.77
2023-01-19T09:27:17.639Z,3.53
2023-01-19T09:29:49.059Z,3.87
2023-01-19T09:32:19.550Z,2.87
2023-01-19T09:34:49.118Z,3.07
2023-01-19T09:37:18.995Z,2.80
2023-01-19T09:39:48.921Z,2.40
2023-01-19T09:42:30.211Z,2.55
2023-01-19T09:45:01.354Z,4.25
2023-01-19T09:47:33.910Z,3.15
2023-01-19T09:50:06.787Z,2.83
2023-01-19T09:52:39.949Z,2.47
2023-01-19T09:55:18.377Z,2.83
2023-01-19T09:57:48.119Z,2.43
2023-01-19T10:00:19.343Z,2.67
2023-01-19T10:03:01.510Z,3.33
2023-01-19T10:05:34.559Z,3.30
2023-01-19T10:08:19.290Z,3.67
2023-01-19T10:10:52.120Z,2.80
2023-01-19T10:13:52.344Z,3.65
2023-01-19T10:16:43.519Z,3.25
2023-01-19T10:19:25.547Z,3.10
2023-01-19T10:21:58.300Z,2.67
2023-01-19T10:24:33.398Z,2.67
2023-01-19T10:27:03.647Z,2.77
2023-01-19T10:29:38.266Z,3.10
2023-01-19T10:32:18.301Z,3.77
2023-01-19T10:34:50.093Z,2.80
2023-01-19T10:37:29.654Z,2.50
2023-01-19T10:40:05.297Z,2.13
2023-01-19T10:42:35.189Z,3.00
2023-01-19T10:45:06.788Z,3.07
2023-01-19T10:47:39.906Z,2.27
2023-01-19T10:50:33.759Z,2.17
2023-01-19T10:53:08.350Z,3.00
2023-01-19T10:55:40.396Z,2.67
2023-01-19T10:58:28.463Z,2.73
2023-01-19T11:01:01.504Z,1.87
2023-01-19T11:03:32.993Z,2.67
2023-01-19T11:06:18.563Z,2.10
2023-01-19T11:08:52.852Z,2.37
2023-01-19T11:11:24.794Z,2.35
2023-01-19T11:14:06.928Z,2.87
2023-01-19T11:16:40.011Z,2.50
2023-01-19T11:19:13.581Z,2.60
2023-01-19T11:21:43.365Z,3.20
2023-01-19T11:24:16.518Z,2.20
2023-01-19T11:26:49.570Z,2.87
2023-01-19T11:29:24.659Z,3.37
2023-01-19T11:31:57.774Z,3.30
2023-01-19T11:34:39.192Z,2.77
2023-01-19T11:39:53.636Z,3.95
2023-01-19T11:42:23.608Z,3.10
2023-01-19T11:44:59.241Z,3.50
2023-01-19T11:47:43.343Z,2.77
2023-01-19T11:50:27.919Z,3.57
2023-01-19T11:53:18.987Z,3.00
2023-01-19T11:56:04.723Z,3.37
2023-01-19T11:58:37.492Z,3.30
2023-01-19T12:01:21.053Z,4.30
2023-01-19T12:03:59.552Z,3.00
2023-01-19T12:06:32.656Z,4.47
2023-01-19T12:09:09.486Z,3.63
2023-01-19T12:11:54.222Z,4.03
2023-01-19T12:14:50.587Z,2.13
2023-01-19T12:17:28.903Z,3.27
2023-01-19T12:20:18.118Z,3.30
2023-01-19T12:22:53.714Z,2.60
2023-01-19T12:25:25.934Z,2.47
2023-01-19T12:27:56.251Z,2.20
2023-01-19T12:30:28.849Z,4.03
2023-01-19T12:33:24.034Z,2.50
2023-01-19T12:47:08.106Z,2.00
2023-01-19T12:49:43.792Z,1.47
2023-01-19T12:52:21.825Z,2.17
2023-01-19T12:55:00.385Z,1.70
2023-01-19T12:57:38.714Z,2.08
2023-01-19T13:00:26.586Z,1.50
2023-01-19T13:02:58.971Z,1.70
2023-01-19T13:05:44.043Z,1.93
2023-01-19T13:08:16.017Z,2.27
2023-01-19T13:11:06.688Z,2.03
2023-01-19T13:13:46.338Z,2.80
2023-01-19T13:16:25.027Z,2.02
2023-01-19T13:19:09.715Z,1.47
2023-01-19T13:21:45.455Z,2.47
2023-01-19T13:24:25.687Z,2.50
2023-01-19T13:26:59.257Z,2.00
2023-01-19T13:29:40.474Z,2.30
2023-01-19T13:32:17.534Z,1.77
2023-01-19T13:34:50.342Z,1.83
2023-01-19T13:37:23.089Z,1.52
2023-01-19T13:39:56.387Z,1.77
2023-01-19T13:42:38.322Z,1.92
2023-01-19T13:45:29.075Z,1.87
2023-01-19T13:48:01.267Z,3.00
2023-01-19T13:50:33.461Z,1.53
2023-01-19T13:53:05.314Z,3.03
2023-01-19T13:55:35.087Z,1.03
2023-01-19T13:58:07.704Z,1.45
2023-01-19T14:00:38.476Z,1.93
2023-01-19T14:03:21.623Z,1.45
2023-01-19T14:05:54.391Z,1.12
2023-01-19T14:08:25.814Z,1.55
2023-01-19T14:13:38.648Z,1.52
2023-01-19T14:16:17.300Z,0.90
2023-01-19T14:18:47.167Z,1.00
2023-01-19T14:21:18.529Z,1.30
2023-01-19T14:23:51.029Z,0.90
2023-01-19T14:26:43.014Z,1.40
2023-01-19T14:29:26.910Z,2.20
2023-01-19T14:32:08.339Z,1.80
2023-01-19T14:34:41.609Z,1.00
2023-01-19T14:37:20.563Z,1.60
2023-01-19T14:39:53.379Z,1.93
2023-01-19T14:42:28.767Z,0.90
2023-01-19T14:45:01.732Z,0.80
2023-01-19T14:47:34.598Z,2.77
2023-01-19T14:50:25.705Z,1.13
2023-01-19T14:53:01.604Z,0.80
2023-01-19T14:55:48.847Z,0.97
2023-01-19T14:58:21.091Z,0.98
2023-01-19T15:00:53.676Z,1.27
2023-01-19T15:03:43.603Z,1.67
2023-01-19T15:06:03.540Z,1.43
2023-01-19T15:08:36.684Z,0.80
2023-01-19T15:11:31.044Z,1.43
2023-01-19T15:14:01.814Z,1.67
2023-01-19T15:16:34.731Z,1.25
2023-01-19T15:19:04.551Z,1.87
2023-01-19T15:21:34.421Z,1.03
2023-01-19T15:24:04.223Z,2.40
2023-01-19T15:26:34.000Z,1.07
2023-01-19T15:29:03.697Z,2.70
2023-01-19T15:31:33.573Z,1.20
2023-01-19T15:34:03.425Z,1.23
2023-01-19T15:36:33.211Z,1.10
2023-01-19T15:39:04.007Z,1.35
2023-01-19T15:41:34.251Z,1.30
2023-01-19T15:44:05.677Z,1.57
2023-01-19T15:46:35.561Z,2.13
2023-01-19T15:49:06.488Z,2.00
2023-01-19T15:51:36.237Z,1.30
2023-01-19T15:54:06.616Z,1.45
2023-01-19T15:56:36.371Z,0.80
2023-01-19T15:59:06.562Z,2.03
2023-01-19T16:01:36.643Z,1.70
2023-01-19T16:04:09.477Z,1.63
2023-01-19T16:06:39.453Z,1.57
2023-01-19T16:09:08.940Z,1.83
2023-01-19T16:11:38.754Z,2.17
2023-01-19T16:14:08.381Z,2.77
2023-01-19T16:16:38.382Z,2.33
2023-01-19T16:19:07.927Z,2.40
2023-01-19T16:21:38.146Z,2.63
2023-01-19T16:24:07.995Z,4.00
2023-01-19T16:26:37.744Z,3.67
2023-01-19T16:29:10.729Z,5.70
2023-01-19T16:31:42.453Z,5.63
2023-01-19T16:34:12.627Z,6.08
2023-01-19T16:36:43.705Z,5.13
2023-01-19T16:39:15.763Z,5.47
2023-01-19T16:41:46.480Z,4.80
2023-01-19T16:44:17.828Z,7.45
2023-01-19T16:46:50.494Z,6.47
2023-01-19T16:49:22.794Z,6.03
2023-01-19T16:51:57.792Z,4.47
2023-01-19T16:54:29.275Z,6.43
2023-01-19T16:56:59.519Z,7.78
2023-01-19T16:59:29.363Z,5.67
2023-01-19T17:01:59.347Z,5.55
2023-01-19T17:04:29.616Z,6.07
2023-01-19T17:06:59.264Z,5.53
2023-01-19T17:09:29.269Z,5.67
2023-01-19T17:11:58.726Z,6.47
2023-01-19T17:14:28.228Z,6.93
2023-01-19T17:16:59.540Z,7.43
2023-01-19T17:19:28.929Z,7.33
2023-01-19T17:21:58.528Z,7.57
2023-01-19T17:24:28.176Z,6.20
2023-01-19T17:26:57.632Z,6.77
2023-01-19T17:29:27.236Z,4.63
2023-01-19T17:31:56.721Z,6.63
2023-01-19T17:34:26.564Z,5.10
2023-01-19T17:36:57.655Z,4.70
2023-01-19T17:39:27.163Z,5.72
2023-01-19T17:41:56.686Z,4.40
2023-01-19T17:44:26.171Z,5.00
2023-01-19T17:46:56.275Z,7.93
2023-01-19T17:49:26.528Z,7.33
2023-01-19T17:51:56.112Z,6.70
2023-01-19T17:54:25.924Z,7.30
2023-01-19T17:56:56.293Z,6.73
2023-01-19T17:59:25.953Z,7.00
2023-01-19T18:01:55.492Z,7.33
2023-01-19T18:04:25.274Z,10.00
2023-01-19T18:06:54.755Z,7.40
2023-01-19T18:09:24.432Z,7.30
2023-01-19T18:11:54.001Z,10.17
2023-01-19T18:14:23.602Z,9.10
2023-01-19T18:16:53.151Z,9.67
2023-01-19T18:19:22.916Z,9.50
2023-01-19T18:21:52.534Z,8.53
2023-01-19T18:24:22.279Z,9.13
2023-01-19T18:26:54.237Z,9.37
2023-01-19T18:29:23.716Z,9.85
2023-01-19T18:31:53.694Z,10.53
2023-01-19T18:34:23.147Z,9.80
2023-01-19T18:36:52.793Z,9.70
2023-01-19T18:39:31.779Z,10.03
2023-01-19T18:42:01.721Z,8.50
2023-01-19T18:44:37.684Z,10.25
2023-01-19T18:47:11.507Z,8.10
2023-01-19T18:49:41.247Z,6.47
2023-01-19T18:52:10.901Z,8.30
2023-01-19T18:54:41.453Z,7.70
2023-01-19T18:57:11.700Z,6.53
2023-01-19T18:59:43.047Z,5.37
2023-01-19T19:02:14.378Z,4.83
2023-01-19T19:04:43.977Z,5.07
2023-01-19T19:07:14.526Z,5.03
2023-01-19T19:09:44.441Z,5.35
2023-01-19T19:12:20.742Z,4.03
2023-01-19T19:14:53.431Z,4.57
2023-01-19T19:17:24.899Z,5.90
2023-01-19T19:19:54.778Z,8.37
2023-01-19T19:22:25.722Z,9.53
2023-01-19T19:24:55.582Z,9.80
2023-01-19T19:27:25.457Z,7.83
2023-01-19T19:29:55.049Z,11.43
2023-01-19T19:32:24.767Z,10.00
2023-01-19T19:34:56.006Z,11.10
2023-01-19T19:37:26.246Z,10.77
2023-01-19T19:39:57.732Z,11.27
2023-01-19T19:42:29.004Z,14.10
2023-01-19T19:45:01.236Z,16.53
2023-01-19T19:47:31.521Z,17.43
2023-01-19T19:50:01.105Z,16.73
2023-01-19T19:52:32.091Z,14.90
2023-01-19T19:55:01.969Z,15.90
2023-01-19T19:57:31.701Z,13.67
2023-01-19T20:00:03.019Z,15.03
2023-01-19T20:02:35.514Z,15.40
2023-01-19T20:05:07.124Z,13.88
2023-01-19T20:07:37.099Z,13.87
2023-01-19T20:10:07.110Z,13.10
2023-01-19T20:12:36.834Z,13.87
2023-01-19T20:15:07.579Z,13.57
2023-01-19T20:17:37.106Z,13.60
2023-01-19T20:20:07.977Z,14.00
2023-01-19T20:22:37.508Z,14.67
2023-01-19T20:25:07.837Z,15.47
2023-01-19T20:27:37.394Z,19.00
2023-01-19T20:30:08.089Z,19.20
2023-01-19T20:32:42.303Z,19.15
2023-01-19T20:35:15.322Z,20.20
2023-01-19T20:37:45.164Z,21.30
2023-01-19T20:40:14.785Z,20.67
2023-01-19T20:42:44.546Z,21.30
2023-01-19T20:45:15.659Z,18.60
2023-01-19T20:50:14.334Z,17.97
2023-01-19T20:52:43.852Z,19.87
2023-01-19T20:55:26.133Z,21.50
2023-01-19T20:57:59.747Z,19.63
2023-01-19T21:00:36.661Z,24.67
2023-01-19T21:03:06.652Z,22.42
2023-01-19T21:05:36.173Z,21.97
2023-01-19T21:08:07.178Z,18.82
2023-01-19T21:10:36.683Z,17.73
2023-01-19T21:13:06.580Z,18.90
2023-01-19T21:15:36.130Z,19.30
2023-01-19T21:18:06.432Z,20.27
2023-01-19T21:20:35.972Z,23.13
2023-01-19T21:23:06.834Z,22.13
2023-01-19T21:25:37.376Z,23.93
2023-01-19T21:28:07.218Z,21.30
2023-01-19T21:30:38.069Z,22.67
2023-01-19T21:33:07.883Z,22.93
2023-01-19T21:35:37.895Z,21.07
2023-01-19T21:38:07.797Z,20.17
2023-01-19T21:40:38.487Z,23.27
2023-01-19T21:43:10.497Z,19.30
2023-01-19T21:45:42.998Z,19.17
2023-01-19T21:48:13.287Z,20.40
2023-01-19T21:50:44.474Z,19.67
2023-01-19T21:53:15.214Z,17.92
2023-01-19T21:55:50.342Z,13.95
2023-01-19T21:58:31.938Z,18.07
2023-01-19T22:01:17.429Z,17.15
2023-01-19T22:04:04.862Z,16.80
2023-01-19T22:06:34.920Z,14.70
2023-01-19T22:09:04.522Z,16.93
2023-01-19T22:11:34.366Z,15.67
2023-01-19T22:14:03.921Z,22.07
2023-01-19T22:16:34.000Z,22.43
2023-01-19T22:19:06.249Z,19.03
2023-01-19T22:21:36.634Z,20.73
2023-01-19T22:24:07.356Z,19.73
2023-01-19T22:26:37.715Z,17.80
2023-01-19T22:29:11.337Z,18.27
2023-01-19T22:31:41.432Z,18.83
2023-01-19T22:34:11.771Z,18.52
2023-01-19T22:36:41.283Z,21.60
2023-01-19T22:39:13.251Z,19.03
2023-01-19T22:41:45.479Z,18.50
2023-01-19T22:44:18.354Z,20.63
2023-01-19T22:46:48.771Z,19.53
2023-01-19T22:49:19.763Z,20.53
2023-01-19T22:54:22.305Z,18.95
2023-01-19T22:56:51.811Z,19.37
2023-01-19T22:59:21.651Z,18.23
2023-01-19T23:01:54.747Z,23.40
2023-01-19T23:04:26.342Z,32.67
2023-01-19T23:06:56.946Z,26.07
2023-01-19T23:11:55.162Z,27.62
2023-01-19T23:14:24.921Z,29.33
2023-01-19T23:16:54.480Z,32.00
2023-01-19T23:19:24.274Z,29.75
2023-01-19T23:21:54.097Z,30.77
2023-01-19T23:24:23.916Z,32.88
2023-01-19T23:26:53.738Z,30.77
2023-01-19T23:29:23.553Z,29.83
2023-01-19T23:31:53.649Z,30.20
2023-01-19T23:34:23.140Z,29.30
2023-01-19T23:36:52.661Z,31.33
2023-01-19T23:39:23.563Z,33.28
2023-01-19T23:44:22.065Z,30.10
2023-01-19T23:46:51.651Z,30.57
2023-01-19T23:49:21.274Z,28.73
2023-01-19T23:51:50.972Z,27.73
2023-01-19T23:54:21.720Z,29.75
2023-01-19T23:59:19.973Z,25.27
